Time;durP1;ratioP1;P1;durP2;ratioP2;P2;SDS_P1;SDS_P2;PMS_P1;PMS_P2;Temp;Humidity;BMP_temperature;BMP_pressure;BME280_temperature;BME280_humidity;BME280_pressure;Samples;Min_cycle;Max_cycle;Signal;HPM_P1;HPM_P2
2022/06/23 00:02:14;;;;;;;1.50;0.93;;;19.50;92.50;;;;;;5031328;28;20039;-74
2022/06/23 00:04:45;;;;;;;3.25;0.80;;;19.70;93.20;;;;;;5031573;28;20036;-75
2022/06/23 00:07:18;;;;;;;2.45;0.98;;;20.10;91.60;;;;;;5032272;28;20053;-76
2022/06/23 00:09:45;;;;;;;1.20;0.65;;;20.20;91.90;;;;;;5033325;28;20432;-75
2022/06/23 00:12:36;;;;;;;0.90;0.70;;;20.50;91.10;;;;;;5032898;28;20041;-74
2022/06/23 00:15:06;;;;;;;1.00;0.57;;;20.60;91.50;;;;;;5030184;28;20207;-73
2022/06/23 00:17:37;;;;;;;0.88;0.47;;;20.50;91.30;;;;;;5032684;28;20033;-72
2022/06/23 00:20:14;;;;;;;1.17;0.65;;;20.80;91.20;;;;;;5049345;28;20108;-74
2022/06/23 00:22:46;;;;;;;1.23;0.50;;;21.00;90.50;;;;;;5034163;28;20037;-76
2022/06/23 00:25:42;;;;;;;1.40;0.50;;;20.90;90.40;;;;;;5037056;28;20052;-73
2022/06/23 00:28:46;;;;;;;12.00;0.87;;;20.90;90.30;;;;;;5031873;28;20029;-74
2022/06/23 00:31:34;;;;;;;2.00;0.68;;;21.20;90.60;;;;;;5030940;28;20113;-74
2022/06/23 00:34:04;;;;;;;0.82;0.70;;;21.60;89.80;;;;;;5035990;28;20040;-73
2022/06/23 00:36:41;;;;;;;0.85;0.50;;;21.80;89.50;;;;;;5037973;28;20021;-73
2022/06/23 00:39:20;;;;;;;1.25;0.75;;;21.80;89.00;;;;;;5046912;28;20071;-75
2022/06/23 00:41:49;;;;;;;0.88;0.60;;;22.00;88.80;;;;;;5042558;28;20032;-75
2022/06/23 00:44:26;;;;;;;1.83;0.60;;;21.90;88.50;;;;;;5050070;28;20029;-74
2022/06/23 00:46:58;;;;;;;1.23;0.60;;;21.90;89.20;;;;;;5038619;28;20024;-75
2022/06/23 00:49:42;;;;;;;2.47;0.65;;;22.30;87.90;;;;;;5044594;28;20024;-74
2022/06/23 00:52:18;;;;;;;1.83;0.38;;;22.70;86.80;;;;;;5043478;28;20053;-73
2022/06/23 00:54:49;;;;;;;1.33;0.52;;;22.70;87.00;;;;;;5045984;28;20041;-73
2022/06/23 00:57:29;;;;;;;1.30;0.68;;;23.00;85.70;;;;;;5047729;28;20653;-74
2022/06/23 01:00:07;;;;;;;1.35;0.70;;;23.00;86.40;;;;;;5039428;28;20072;-74
2022/06/23 01:02:51;;;;;;;1.55;0.50;;;23.20;87.70;;;;;;5040031;28;20444;-74
2022/06/23 01:05:39;;;;;;;1.67;0.85;;;23.70;85.00;;;;;;5037852;28;20037;-74
2022/06/23 01:08:28;;;;;;;2.00;0.52;;;23.80;84.50;;;;;;5042673;28;20371;-76
2022/06/23 01:11:07;;;;;;;0.80;0.55;;;24.40;82.50;;;;;;5037486;28;20734;-75
2022/06/23 01:14:07;;;;;;;1.23;0.45;;;24.50;83.30;;;;;;5052813;28;20048;-76
2022/06/23 01:17:10;;;;;;;0.85;0.60;;;24.70;82.70;;;;;;5044068;28;20546;-71
2022/06/23 01:20:29;;;;;;;1.40;0.50;;;24.70;82.40;;;;;;5036181;28;20053;-72
2022/06/23 01:23:40;;;;;;;0.65;0.45;;;24.40;82.70;;;;;;5019900;28;20025;-72
2022/06/23 01:26:22;;;;;;;0.82;0.50;;;24.40;81.80;;;;;;5024998;28;20037;-72
2022/06/23 01:28:58;;;;;;;1.25;0.50;;;24.10;82.80;;;;;;5048487;28;20024;-71
2022/06/23 01:31:38;;;;;;;0.93;0.40;;;24.40;81.90;;;;;;5047404;28;20036;-71
2022/06/23 01:34:36;;;;;;;1.40;0.52;;;24.80;80.60;;;;;;5036025;28;20403;-71
2022/06/23 01:37:12;;;;;;;0.77;0.38;;;24.30;80.70;;;;;;5020184;28;20123;-70
2022/06/23 01:39:46;;;;;;;;;;;23.60;81.90;;;;;;5040859;28;20051;-71
2022/06/23 01:42:48;;;;;;;0.73;0.38;;;23.00;83.60;;;;;;5028391;28;20012;-70
2022/06/23 01:45:34;;;;;;;1.90;0.70;;;23.30;82.60;;;;;;5033748;28;20453;-70
2022/06/23 01:48:13;;;;;;;0.68;0.52;;;23.90;83.40;;;;;;5031143;28;20037;-70
2022/06/23 01:50:55;;;;;;;0.75;0.40;;;24.90;81.20;;;;;;5029541;28;20020;-72
2022/06/23 01:53:29;;;;;;;1.60;0.40;;;25.70;80.20;;;;;;5028524;28;20151;-71
2022/06/23 01:56:26;;;;;;;1.85;0.47;;;26.20;79.30;;;;;;5028704;28;20270;-72
2022/06/23 01:59:04;;;;;;;0.57;0.32;;;26.60;80.00;;;;;;5030345;28;20043;-70
2022/06/23 02:02:00;;;;;;;1.20;0.40;;;26.80;78.50;;;;;;5032586;28;20028;-70
2022/06/23 02:05:08;;;;;;;1.15;0.60;;;26.60;78.30;;;;;;5031857;28;20037;-71
2022/06/23 02:07:41;;;;;;;1.15;0.73;;;27.00;77.30;;;;;;5039295;28;20038;-70
2022/06/23 02:10:23;;;;;;;2.53;0.50;;;27.10;75.90;;;;;;5033470;28;20032;-70
2022/06/23 02:13:04;;;;;;;2.65;0.50;;;27.40;78.90;;;;;;5031312;28;20431;-71
2022/06/23 02:15:49;;;;;;;0.75;0.50;;;27.60;77.30;;;;;;5031243;28;20037;-72
2022/06/23 02:18:31;;;;;;;1.13;0.57;;;27.70;75.80;;;;;;5031055;28;20033;-71
2022/06/23 02:20:58;;;;;;;2.50;0.73;;;27.50;78.20;;;;;;5029582;28;20089;-72
2022/06/23 02:24:42;;;;;;;0.82;0.73;;;27.80;77.30;;;;;;5041952;28;20029;-70
2022/06/23 02:27:42;;;;;;;1.80;0.95;;;27.60;75.00;;;;;;4867651;29;20037;-70
2022/06/23 02:30:19;;;;;;;1.55;0.70;;;27.70;78.00;;;;;;4873680;29;20452;-72
2022/06/23 02:33:11;;;;;;;1.08;0.40;;;27.70;76.10;;;;;;5010440;28;20033;-71
2022/06/23 02:35:53;;;;;;;2.60;0.60;;;27.40;75.80;;;;;;5031557;28;20067;-71
2022/06/23 02:38:31;;;;;;;0.50;0.40;;;27.40;76.60;;;;;;5032887;28;20037;-71
2022/06/23 02:41:18;;;;;;;0.70;0.35;;;27.60;76.80;;;;;;5030548;28;20093;-70
2022/06/23 02:44:11;;;;;;;0.73;0.52;;;27.60;78.00;;;;;;5034869;28;20048;-69
2022/06/23 02:46:44;;;;;;;1.20;0.77;;;27.40;76.60;;;;;;5034781;28;22121;-70
2022/06/23 02:49:33;;;;;;;0.95;0.60;;;26.80;76.40;;;;;;5030442;28;20087;-72
2022/06/23 02:52:09;;;;;;;2.30;0.30;;;26.60;78.60;;;;;;5036686;28;20063;-71
2022/06/23 02:54:54;;;;;;;1.38;0.40;;;26.40;77.70;;;;;;5032385;28;20039;-70
2022/06/23 02:57:33;;;;;;;0.73;0.50;;;26.30;78.80;;;;;;5033148;28;20454;-72
2022/06/23 03:00:14;;;;;;;1.10;0.47;;;25.80;78.80;;;;;;5032743;28;20178;-69
2022/06/23 03:03:10;;;;;;;1.67;0.40;;;25.80;78.80;;;;;;5041768;28;20033;-71
2022/06/23 03:05:43;;;;;;;;;;;25.70;80.50;;;;;;5034784;28;20033;-72
2022/06/23 03:08:23;;;;;;;0.63;0.52;;;25.70;79.50;;;;;;5035983;28;20270;-72
2022/06/23 03:11:03;;;;;;;0.15;0.15;;;25.30;78.10;;;;;;5044250;28;20039;-72
2022/06/23 03:13:51;;;;;;;0.47;0.30;;;24.80;80.60;;;;;;5043074;28;20036;-72
2022/06/23 03:16:25;;;;;;;0.38;0.10;;;24.40;79.30;;;;;;5051930;28;20812;-71
2022/06/23 03:19:11;;;;;;;0.20;0.17;;;24.10;80.10;;;;;;5042548;28;20063;-71
2022/06/23 03:21:52;;;;;;;1.83;0.10;;;23.80;80.70;;;;;;5037284;28;20116;-72
2022/06/23 03:24:49;;;;;;;0.68;0.10;;;23.90;80.80;;;;;;5049299;28;20166;-72
2022/06/23 03:27:29;;;;;;;0.15;0.10;;;23.70;81.10;;;;;;5030809;28;20113;-71
2022/06/23 03:30:34;;;;;;;0.00;0.00;;;23.50;81.00;;;;;;5031336;28;20032;-70
2022/06/23 03:33:19;;;;;;;0.08;0.00;;;23.10;82.60;;;;;;5036346;28;20080;-69
2022/06/23 03:36:10;;;;;;;0.00;0.00;;;22.50;82.90;;;;;;5033898;28;20029;-70
2022/06/23 03:41:38;;;;;;;0.13;0.00;;;21.60;84.40;;;;;;5033629;28;20105;-71
2022/06/23 03:44:32;;;;;;;0.00;0.00;;;21.30;85.80;;;;;;5037651;28;20047;-72
2022/06/23 03:47:12;;;;;;;0.00;0.00;;;21.00;86.30;;;;;;5030784;28;20033;-70
2022/06/23 03:49:59;;;;;;;0.00;0.00;;;20.60;87.30;;;;;;5049100;28;20067;-70
2022/06/23 03:52:59;;;;;;;0.00;0.00;;;20.50;87.50;;;;;;5050565;28;20073;-70
2022/06/23 03:55:29;;;;;;;0.00;0.00;;;20.30;88.00;;;;;;5037854;28;20051;-70
2022/06/23 03:58:04;;;;;;;0.17;0.00;;;20.20;87.20;;;;;;5045431;28;20134;-70
2022/06/23 04:00:42;;;;;;;0.00;0.00;;;20.00;88.00;;;;;;5051021;28;20108;-69
2022/06/23 04:03:42;;;;;;;0.10;0.00;;;19.90;88.10;;;;;;5039064;28;20271;-69
2022/06/23 04:06:47;;;;;;;0.00;0.00;;;19.70;88.30;;;;;;5043678;28;20052;-70
2022/06/23 04:09:20;;;;;;;1.30;0.00;;;19.70;88.50;;;;;;5035923;28;20029;-69
2022/06/23 04:12:07;;;;;;;0.00;0.00;;;19.60;89.00;;;;;;5031384;28;20029;-71
2022/06/23 04:14:37;;;;;;;1.27;0.10;;;19.50;89.30;;;;;;5042018;28;20039;-71
2022/06/23 04:17:22;;;;;;;0.10;0.10;;;19.40;88.80;;;;;;5031886;28;20475;-70
2022/06/23 04:19:54;;;;;;;0.20;0.00;;;19.40;90.00;;;;;;5036362;28;20040;-70
2022/06/23 04:22:42;;;;;;;0.00;0.00;;;19.40;89.30;;;;;;5036776;28;20051;-71
2022/06/23 04:25:17;;;;;;;0.10;0.00;;;19.20;89.60;;;;;;5032247;28;20341;-71
2022/06/23 04:27:54;;;;;;;0.00;0.00;;;19.20;89.40;;;;;;5034755;28;20017;-72
2022/06/23 04:30:36;;;;;;;0.00;0.00;;;19.00;90.00;;;;;;5033522;28;20049;-72
2022/06/23 04:33:07;;;;;;;0.00;0.00;;;19.00;90.30;;;;;;5033491;28;20116;-70
2022/06/23 04:35:38;;;;;;;0.00;0.00;;;18.90;90.20;;;;;;5035016;28;20040;-70
2022/06/23 04:38:24;;;;;;;0.00;0.00;;;18.80;90.30;;;;;;5032193;28;20029;-70
2022/06/23 04:41:00;;;;;;;0.00;0.00;;;18.80;90.00;;;;;;5033420;28;20407;-71
2022/06/23 04:43:40;;;;;;;0.00;0.00;;;18.70;90.20;;;;;;5028811;28;20124;-72
2022/06/23 04:46:27;;;;;;;0.00;0.00;;;18.60;90.20;;;;;;5032037;28;20032;-72
2022/06/23 04:49:25;;;;;;;0.00;0.00;;;18.60;90.60;;;;;;5034515;28;20068;-70
2022/06/23 04:51:56;;;;;;;1.88;0.00;;;18.60;90.50;;;;;;5031222;28;20047;-71
2022/06/23 04:54:49;;;;;;;0.00;0.00;;;18.60;90.20;;;;;;5039108;28;20040;-72
2022/06/23 04:57:24;;;;;;;0.00;0.00;;;18.50;90.70;;;;;;5038870;28;20044;-72
2022/06/23 04:59:58;;;;;;;1.50;0.00;;;18.40;90.70;;;;;;5032880;28;20470;-73
2022/06/23 05:02:34;;;;;;;0.00;0.00;;;18.30;90.60;;;;;;5041163;28;20162;-73
2022/06/23 05:05:22;;;;;;;0.25;0.17;;;18.30;90.60;;;;;;5037624;28;20036;-73
2022/06/23 05:08:01;;;;;;;0.13;0.00;;;18.10;90.50;;;;;;5043567;28;20033;-73
2022/06/23 05:10:33;;;;;;;0.00;0.00;;;18.00;90.60;;;;;;5038151;28;20071;-72
2022/06/23 05:13:12;;;;;;;0.08;0.00;;;17.90;90.80;;;;;;5029076;28;20117;-72
2022/06/23 05:16:00;;;;;;;0.80;0.43;;;17.80;90.70;;;;;;5034886;28;20029;-72
2022/06/23 05:18:34;;;;;;;0.10;0.00;;;17.70;90.80;;;;;;5040990;28;20175;-73
2022/06/23 05:21:08;;;;;;;0.10;0.05;;;17.70;91.10;;;;;;5043360;28;20032;-71
2022/06/23 05:23:43;;;;;;;0.00;0.00;;;17.60;91.00;;;;;;5047315;28;20036;-73
2022/06/23 05:26:38;;;;;;;0.00;0.00;;;17.50;91.30;;;;;;5048003;28;20033;-74
2022/06/23 05:29:26;;;;;;;0.25;0.03;;;17.50;91.40;;;;;;5031660;28;20033;-72
2022/06/23 05:32:01;;;;;;;0.22;0.22;;;17.40;91.20;;;;;;5038761;28;20135;-72
2022/06/23 05:34:32;;;;;;;0.00;0.00;;;17.40;91.20;;;;;;5048690;28;20403;-73
2022/06/23 05:37:20;;;;;;;1.35;0.00;;;17.30;91.30;;;;;;5042733;28;20474;-72
2022/06/23 05:39:55;;;;;;;0.52;0.00;;;17.20;91.40;;;;;;5036684;28;20033;-72
2022/06/23 05:42:29;;;;;;;0.00;0.00;;;17.10;91.50;;;;;;5034788;28;20026;-72
2022/06/23 05:45:02;;;;;;;0.00;0.00;;;17.00;91.80;;;;;;5034166;28;20503;-73
2022/06/23 05:47:33;;;;;;;0.05;0.00;;;16.90;91.70;;;;;;5031533;28;20378;-73
2022/06/23 05:50:09;;;;;;;0.10;0.00;;;16.80;91.70;;;;;;5028623;28;20060;-73
2022/06/23 05:52:48;;;;;;;0.20;0.10;;;16.80;91.80;;;;;;5030411;28;20422;-74
2022/06/23 05:55:38;;;;;;;0.47;0.30;;;16.70;92.10;;;;;;5029329;28;20087;-73
2022/06/23 05:58:28;;;;;;;0.75;0.50;;;16.60;92.10;;;;;;5029576;28;20047;-72
2022/06/23 06:01:19;;;;;;;2.17;1.02;;;16.50;92.20;;;;;;5034887;28;20430;-72
2022/06/23 06:03:52;;;;;;;0.15;0.10;;;16.40;92.20;;;;;;5024804;28;20044;-73
2022/06/23 06:06:20;;;;;;;0.88;0.20;;;16.30;92.20;;;;;;5034648;28;20889;-72
2022/06/23 06:11:41;;;;;;;0.80;0.17;;;16.20;92.50;;;;;;5031825;28;20056;-72
2022/06/23 06:14:15;;;;;;;0.10;0.10;;;16.10;92.60;;;;;;5027890;28;20037;-73
2022/06/23 06:16:42;;;;;;;0.10;0.10;;;16.00;92.40;;;;;;5028246;28;20029;-77
2022/06/23 06:19:22;;;;;;;0.40;0.30;;;15.90;92.50;;;;;;5028172;28;20050;-79
2022/06/23 06:21:52;;;;;;;0.60;0.20;;;15.90;92.50;;;;;;5030700;28;20036;-79
2022/06/23 06:24:36;;;;;;;0.75;0.22;;;15.90;92.70;;;;;;5028989;28;20047;-79
2022/06/23 06:27:09;;;;;;;0.82;0.40;;;15.80;92.70;;;;;;5031438;28;20037;-77
2022/06/23 06:29:40;;;;;;;1.55;0.63;;;15.80;92.60;;;;;;5032892;28;20554;-78
2022/06/23 06:32:27;;;;;;;0.50;0.38;;;15.80;92.70;;;;;;5033845;28;20025;-79
2022/06/23 06:35:23;;;;;;;1.27;0.40;;;15.80;92.90;;;;;;5058994;28;20115;-81
2022/06/23 06:38:06;;;;;;;2.40;0.95;;;15.70;92.90;;;;;;5045730;28;20036;-79
2022/06/23 06:40:38;;;;;;;6.10;3.08;;;15.60;93.00;;;;;;5040351;28;20124;-81
2022/06/23 06:43:10;;;;;;;2.40;0.95;;;15.50;92.90;;;;;;5048136;28;20059;-80
2022/06/23 06:45:38;;;;;;;1.65;1.02;;;15.40;93.00;;;;;;5034984;28;20029;-80
2022/06/23 06:48:31;;;;;;;0.88;0.40;;;15.40;93.10;;;;;;5035616;28;20043;-80
2022/06/23 06:51:11;;;;;;;0.65;0.28;;;15.30;93.20;;;;;;5038229;28;20033;-81
2022/06/23 06:53:52;;;;;;;0.93;0.30;;;15.20;93.40;;;;;;5041302;28;20040;-79
2022/06/23 06:56:35;;;;;;;0.85;0.32;;;15.10;93.80;;;;;;5042690;28;20032;-80
2022/06/23 06:59:22;;;;;;;0.43;0.35;;;14.90;94.00;;;;;;5048223;28;20553;-79
2022/06/23 07:02:11;;;;;;;1.90;0.70;;;14.90;94.10;;;;;;5041649;28;20021;-79
2022/06/23 07:04:51;;;;;;;0.88;0.50;;;14.80;94.50;;;;;;5030572;28;20387;-79
2022/06/23 07:07:29;;;;;;;4.25;0.80;;;14.60;94.70;;;;;;5050171;28;20107;-81
2022/06/23 07:10:05;;;;;;;0.40;0.30;;;14.50;94.90;;;;;;5030495;28;20121;-80
2022/06/23 07:12:39;;;;;;;1.45;0.65;;;14.40;95.10;;;;;;5042665;28;20379;-80
2022/06/23 07:15:26;;;;;;;2.38;0.82;;;14.40;95.10;;;;;;5048225;28;20537;-81
2022/06/23 07:18:12;;;;;;;1.20;0.60;;;14.30;95.20;;;;;;5037186;28;20093;-81
2022/06/23 07:20:57;;;;;;;1.67;0.85;;;14.10;95.50;;;;;;5035652;28;20423;-81
2022/06/23 07:23:40;;;;;;;0.85;0.50;;;14.00;96.00;;;;;;5048319;28;20107;-80
2022/06/23 07:26:23;;;;;;;1.23;0.75;;;13.90;96.00;;;;;;5049439;28;20479;-81
2022/06/23 07:28:57;;;;;;;1.45;1.00;;;13.80;96.20;;;;;;5035684;28;20034;-79
2022/06/23 07:31:39;;;;;;;2.60;1.08;;;13.70;96.20;;;;;;5039578;28;20021;-80
2022/06/23 07:34:10;;;;;;;2.10;0.90;;;13.80;96.20;;;;;;5052053;28;20029;-80
2022/06/23 07:37:11;;;;;;;1.30;0.70;;;13.80;96.30;;;;;;5043527;28;20033;-80
2022/06/23 07:39:41;;;;;;;2.85;1.00;;;13.70;96.30;;;;;;5019477;28;20476;-80
2022/06/23 07:42:19;;;;;;;1.98;1.30;;;13.60;96.70;;;;;;5041058;28;20386;-80
2022/06/23 07:44:56;;;;;;;2.22;1.27;;;13.60;96.70;;;;;;5038807;28;20029;-79
2022/06/23 07:47:24;;;;;;;5.70;2.05;;;13.50;96.80;;;;;;5044862;28;20048;-81
2022/06/23 07:49:51;;;;;;;4.07;1.88;;;13.50;97.00;;;;;;5039326;28;20091;-81
2022/06/23 07:52:20;;;;;;;2.78;1.65;;;13.30;97.20;;;;;;5036859;28;20057;-81
2022/06/23 07:54:51;;;;;;;2.70;1.23;;;13.30;97.30;;;;;;5051756;28;20079;-81
2022/06/23 07:57:18;;;;;;;3.63;1.38;;;13.20;97.40;;;;;;5040683;28;20026;-81
2022/06/23 07:59:58;;;;;;;2.60;1.25;;;13.20;97.80;;;;;;5035908;28;20091;-80
2022/06/23 08:02:36;;;;;;;3.72;1.77;;;13.00;98.10;;;;;;5034725;28;20024;-80
2022/06/23 08:05:13;;;;;;;2.25;1.13;;;13.00;98.10;;;;;;5050395;28;20090;-80
2022/06/23 08:07:42;;;;;;;6.00;1.30;;;12.90;98.20;;;;;;5053230;28;20469;-81
2022/06/23 08:10:22;;;;;;;2.65;1.15;;;12.80;98.20;;;;;;5045780;28;20028;-80
2022/06/23 08:13:04;;;;;;;2.50;1.58;;;12.80;98.30;;;;;;5039236;28;20516;-80
2022/06/23 08:18:52;;;;;;;2.65;1.98;;;12.70;98.60;;;;;;5052219;28;20115;-80
2022/06/23 08:21:33;;;;;;;2.83;1.88;;;12.70;98.50;;;;;;5050982;28;20021;-81
2022/06/23 08:24:14;;;;;;;5.60;2.30;;;12.60;98.50;;;;;;5052327;28;20095;-79
2022/06/23 08:26:50;;;;;;;2.85;1.92;;;12.70;98.70;;;;;;5040026;28;20021;-79
2022/06/23 08:29:18;;;;;;;;;;;12.60;98.80;;;;;;5031828;28;20037;-80
2022/06/23 08:31:45;;;;;;;1.50;1.38;;;12.60;98.80;;;;;;5038257;28;19948;-81
2022/06/23 08:34:12;;;;;;;6.03;2.05;;;12.60;99.00;;;;;;5038554;28;20033;-81
2022/06/23 08:36:42;;;;;;;2.35;1.17;;;12.60;98.90;;;;;;5045344;28;20122;-81
2022/06/23 08:39:19;;;;;;;2.47;1.60;;;12.60;98.90;;;;;;5051857;28;20429;-80
2022/06/23 08:41:52;;;;;;;2.70;1.05;;;12.60;98.90;;;;;;5045226;28;20132;-81
2022/06/23 08:44:27;;;;;;;3.80;2.80;;;12.60;98.80;;;;;;5035974;28;20026;-81
2022/06/23 08:47:05;;;;;;;5.70;4.07;;;12.60;99.00;;;;;;5039036;28;20108;-80
2022/06/23 08:49:37;;;;;;;4.03;3.10;;;12.60;99.10;;;;;;5072483;28;20161;-82
2022/06/23 08:52:23;;;;;;;5.55;3.60;;;12.60;99.10;;;;;;5033561;28;20106;-81
2022/06/23 08:55:06;;;;;;;5.10;2.67;;;12.60;99.30;;;;;;5059838;28;20024;-79
2022/06/23 08:57:40;;;;;;;2.00;1.80;;;12.60;99.40;;;;;;5044875;28;20066;-79
2022/06/23 09:00:10;;;;;;;3.28;2.20;;;12.60;99.40;;;;;;5046001;28;20033;-78
2022/06/23 09:03:08;;;;;;;5.07;2.67;;;12.70;99.40;;;;;;5046493;28;20055;-77
2022/06/23 09:05:43;;;;;;;5.93;2.75;;;12.70;99.40;;;;;;5039398;28;20026;-77
2022/06/23 09:08:24;;;;;;;3.17;2.33;;;12.60;99.50;;;;;;5051627;28;20089;-76
2022/06/23 09:11:13;;;;;;;3.28;2.25;;;12.60;99.60;;;;;;5048016;28;20036;-79
2022/06/23 09:14:08;;;;;;;5.45;2.42;;;12.50;99.70;;;;;;5034928;28;20022;-81
2022/06/23 09:16:53;;;;;;;3.60;2.42;;;12.50;99.90;;;;;;5029393;28;20211;-77
2022/06/23 09:19:40;;;;;;;3.97;2.37;;;12.40;99.90;;;;;;5039101;28;20037;-81
2022/06/23 09:22:13;;;;;;;;;;;12.40;99.90;;;;;;5036907;28;20633;-78
2022/06/23 09:24:52;;;;;;;3.72;2.45;;;12.40;99.90;;;;;;5031617;28;19963;-79
2022/06/23 09:27:39;;;;;;;3.53;2.40;;;12.30;99.90;;;;;;5037775;28;20436;-81
2022/06/23 09:30:46;;;;;;;4.75;3.00;;;12.20;99.90;;;;;;5030496;28;20025;-82
2022/06/23 09:33:44;;;;;;;4.25;2.40;;;12.00;99.90;;;;;;5033858;28;20036;-78
2022/06/23 09:36:34;;;;;;;4.78;3.22;;;11.90;99.90;;;;;;5028630;28;20038;-80
2022/06/23 09:39:22;;;;;;;3.30;2.83;;;11.80;99.90;;;;;;5034365;28;20156;-78
2022/06/23 09:42:04;;;;;;;4.65;2.60;;;11.70;99.90;;;;;;5030604;28;20048;-80
2022/06/23 09:44:38;;;;;;;3.17;2.00;;;11.60;99.90;;;;;;5030180;28;20538;-80
2022/06/23 09:47:41;;;;;;;3.97;2.40;;;11.50;99.90;;;;;;5029927;28;20056;-79
2022/06/23 09:50:19;;;;;;;2.83;1.88;;;11.40;99.90;;;;;;5042877;28;20033;-79
2022/06/23 09:53:02;;;;;;;3.90;2.45;;;11.40;99.90;;;;;;5045590;28;20418;-80
2022/06/23 09:55:45;;;;;;;3.13;2.03;;;11.30;99.90;;;;;;5030094;28;20033;-79
2022/06/23 09:58:13;;;;;;;2.60;1.77;;;11.20;99.90;;;;;;5030269;28;20025;-80
2022/06/23 10:01:02;;;;;;;4.65;2.10;;;11.10;99.90;;;;;;5030556;28;20021;-77
2022/06/23 10:03:54;;;;;;;3.45;2.30;;;11.00;99.90;;;;;;5030716;28;20041;-80
2022/06/23 10:07:01;;;;;;;3.33;2.20;;;10.90;99.90;;;;;;5044634;28;20060;-79
2022/06/23 10:09:54;;;;;;;3.53;1.98;;;10.90;99.90;;;;;;5040289;28;20029;-79
2022/06/23 10:12:46;;;;;;;3.55;2.90;;;10.80;99.90;;;;;;5048577;28;20064;-80
2022/06/23 10:15:20;;;;;;;5.53;2.88;;;10.70;99.90;;;;;;5033294;28;20029;-83
2022/06/23 10:17:50;;;;;;;5.95;3.10;;;10.70;99.90;;;;;;5040421;28;20032;-79
2022/06/23 10:20:57;;;;;;;5.25;2.17;;;10.70;99.90;;;;;;5030196;28;20371;-79
2022/06/23 10:23:45;;;;;;;2.97;2.20;;;10.60;99.90;;;;;;5028960;28;20049;-79
2022/06/23 10:26:13;;;;;;;5.15;2.20;;;10.50;99.90;;;;;;5026659;28;20033;-78
2022/06/23 10:29:09;;;;;;;2.97;1.83;;;10.50;99.90;;;;;;5046709;28;20048;-78
2022/06/23 10:31:54;;;;;;;4.72;2.17;;;10.50;99.90;;;;;;5042333;28;20128;-80
2022/06/23 10:35:11;;;;;;;3.67;2.83;;;10.50;99.90;;;;;;5049269;28;20036;-77
2022/06/23 10:37:47;;;;;;;6.57;2.95;;;10.60;99.90;;;;;;5030758;28;20030;-78
2022/06/23 10:40:55;;;;;;;8.65;5.07;;;10.60;99.90;;;;;;5037634;28;20045;-77
2022/06/23 10:43:48;;;;;;;11.00;5.80;;;10.60;99.90;;;;;;5037117;28;20037;-78
2022/06/23 10:46:25;;;;;;;10.32;4.88;;;10.50;99.90;;;;;;5036049;28;20500;-80
2022/06/23 10:49:24;;;;;;;11.05;5.82;;;10.40;99.90;;;;;;5051627;28;20037;-75
2022/06/23 10:52:22;;;;;;;8.98;4.70;;;10.30;99.90;;;;;;5042358;28;20432;-78
2022/06/23 10:55:05;;;;;;;8.23;4.88;;;10.20;99.90;;;;;;5037862;28;20044;-78
2022/06/23 10:58:09;;;;;;;6.88;4.38;;;10.10;99.90;;;;;;5049050;28;20063;-77
2022/06/23 11:00:51;;;;;;;10.82;5.05;;;9.90;99.90;;;;;;5042122;28;20427;-79
2022/06/23 11:03:33;;;;;;;7.10;4.50;;;9.90;99.90;;;;;;5042592;28;20057;-80
2022/06/23 11:06:23;;;;;;;7.43;4.32;;;9.80;99.90;;;;;;5040306;28;20026;-78
2022/06/23 11:09:00;;;;;;;8.52;5.22;;;9.70;99.90;;;;;;5052761;28;20053;-78
2022/06/23 11:11:59;;;;;;;9.55;4.75;;;9.60;99.90;;;;;;5057773;28;20418;-79
2022/06/23 11:14:45;;;;;;;7.60;4.57;;;9.60;99.90;;;;;;5044388;28;20075;-81
2022/06/23 11:17:52;;;;;;;7.93;4.55;;;9.50;99.90;;;;;;5053418;28;20031;-78
2022/06/23 11:20:31;;;;;;;;;;;9.50;99.90;;;;;;5052085;28;20028;-78
2022/06/23 11:23:31;;;;;;;7.95;4.05;;;9.40;99.90;;;;;;5046934;28;19909;-79
2022/06/23 11:26:01;;;;;;;6.72;3.95;;;9.40;99.90;;;;;;5050094;28;20025;-77
2022/06/23 11:29:10;;;;;;;10.27;4.75;;;9.30;99.90;;;;;;5068268;28;20086;-78
2022/06/23 11:31:50;;;;;;;8.18;4.82;;;9.30;99.90;;;;;;4969766;28;20034;-79
2022/06/23 11:34:44;;;;;;;6.28;4.18;;;9.30;99.90;;;;;;4966775;28;20039;-77
2022/06/23 11:37:18;;;;;;;8.30;4.63;;;9.30;99.90;;;;;;5024961;28;20047;-77
2022/06/23 11:40:07;;;;;;;7.90;4.85;;;9.20;99.90;;;;;;5053489;28;20128;-81
2022/06/23 11:42:43;;;;;;;7.38;3.90;;;9.00;99.90;;;;;;5037838;28;20032;-77
2022/06/23 11:45:35;;;;;;;8.82;4.28;;;9.00;99.90;;;;;;5032828;28;20045;-78
2022/06/23 11:48:28;;;;;;;6.95;3.92;;;9.00;99.90;;;;;;5041717;28;20047;-78
2022/06/23 11:51:23;;;;;;;8.70;5.22;;;8.90;99.90;;;;;;5032807;28;20095;-78
2022/06/23 11:53:59;;;;;;;10.23;5.18;;;9.00;99.90;;;;;;5035172;28;20115;-78
2022/06/23 11:56:44;;;;;;;;;;;8.90;99.90;;;;;;5036237;28;20017;-79
2022/06/23 11:59:35;;;;;;;7.30;4.88;;;8.90;99.90;;;;;;5052321;28;19976;-80
2022/06/23 12:02:03;;;;;;;12.80;6.78;;;8.90;99.90;;;;;;5050292;28;20029;-78
2022/06/23 12:04:39;;;;;;;9.40;6.38;;;8.80;99.90;;;;;;5047734;28;20052;-78
2022/06/23 12:07:35;;;;;;;11.20;7.28;;;8.80;99.90;;;;;;5044836;28;20480;-81
2022/06/23 12:10:12;;;;;;;10.60;5.75;;;8.80;99.90;;;;;;5004453;28;20029;-77
2022/06/23 12:12:43;;;;;;;9.90;6.13;;;8.80;99.90;;;;;;5043661;28;20041;-77
2022/06/23 12:15:13;;;;;;;9.18;6.03;;;8.80;99.90;;;;;;5049965;28;20522;-78
2022/06/23 12:17:48;;;;;;;10.00;5.47;;;8.80;99.90;;;;;;5050201;28;20067;-79
2022/06/23 12:20:39;;;;;;;7.28;5.72;;;8.80;99.90;;;;;;5042658;28;20089;-78
2022/06/23 12:23:32;;;;;;;8.18;5.20;;;8.70;99.90;;;;;;5038811;28;20035;-80
2022/06/23 12:26:10;;;;;;;10.32;5.28;;;8.70;99.90;;;;;;5032127;28;20021;-79
2022/06/23 12:29:05;;;;;;;9.65;5.07;;;8.60;99.90;;;;;;5051140;28;20033;-81
2022/06/23 12:31:53;;;;;;;6.47;5.00;;;8.50;99.90;;;;;;5049325;28;20368;-78
2022/06/23 12:34:44;;;;;;;5.38;4.63;;;8.50;99.90;;;;;;5051763;28;20096;-79
2022/06/23 12:37:32;;;;;;;8.00;5.13;;;8.50;99.90;;;;;;5049324;28;20109;-78
2022/06/23 12:40:06;;;;;;;7.65;5.25;;;8.50;99.90;;;;;;5001528;28;20037;-79
2022/06/23 12:42:50;;;;;;;7.38;4.95;;;8.50;99.90;;;;;;5046908;28;20500;-77
2022/06/23 12:45:17;;;;;;;9.27;5.40;;;8.40;99.90;;;;;;5035467;28;20037;-77
2022/06/23 12:48:17;;;;;;;7.88;5.22;;;8.30;99.90;;;;;;5043086;28;20024;-78
2022/06/23 12:51:10;;;;;;;10.18;5.43;;;8.30;99.90;;;;;;5034883;28;20051;-77
2022/06/23 12:54:01;;;;;;;7.00;4.85;;;8.30;99.90;;;;;;5044064;28;20045;-76
2022/06/23 12:57:16;;;;;;;7.60;5.05;;;8.30;99.90;;;;;;5047796;28;20034;-77
2022/06/23 13:00:18;;;;;;;7.38;5.10;;;8.20;99.90;;;;;;5017055;28;20069;-78
2022/06/23 13:02:59;;;;;;;6.63;4.63;;;8.20;99.90;;;;;;5034628;28;20025;-77
2022/06/23 13:05:45;;;;;;;6.25;4.07;;;8.30;99.90;;;;;;5037327;28;20041;-77
2022/06/23 13:08:22;;;;;;;7.15;4.95;;;8.20;99.90;;;;;;5043507;28;20375;-76
2022/06/23 13:11:18;;;;;;;9.88;5.60;;;8.30;99.90;;;;;;5044275;28;20120;-78
2022/06/23 13:13:55;;;;;;;8.57;5.40;;;8.30;99.90;;;;;;5029927;28;20387;-77
2022/06/23 13:16:49;;;;;;;7.15;4.00;;;8.20;99.90;;;;;;5043838;28;20035;-78
2022/06/23 13:19:23;;;;;;;6.28;4.10;;;8.20;99.90;;;;;;5044943;28;20039;-80
2022/06/23 13:21:51;;;;;;;6.80;4.63;;;8.10;99.90;;;;;;5043903;28;20021;-81
2022/06/23 13:24:21;;;;;;;9.07;4.30;;;8.10;99.90;;;;;;5040766;28;20056;-81
2022/06/23 13:26:51;;;;;;;12.80;4.60;;;8.00;99.90;;;;;;5040699;28;20028;-80
2022/06/23 13:29:21;;;;;;;5.88;3.83;;;8.00;99.90;;;;;;5048416;28;20506;-80
2022/06/23 13:31:51;;;;;;;5.55;3.83;;;8.00;99.90;;;;;;5045477;28;20113;-80
2022/06/23 13:34:27;;;;;;;6.00;4.93;;;8.00;99.90;;;;;;5034978;28;20116;-79
2022/06/23 13:37:19;;;;;;;6.63;3.85;;;8.00;99.90;;;;;;5032810;28;20099;-78
2022/06/23 13:39:55;;;;;;;6.03;3.92;;;7.90;99.90;;;;;;5043642;28;20041;-80
2022/06/23 13:42:42;;;;;;;7.03;4.43;;;7.90;99.90;;;;;;5036083;28;20029;-82
2022/06/23 13:45:44;;;;;;;6.10;4.15;;;7.90;99.90;;;;;;5028724;28;20029;-81
2022/06/23 13:48:48;;;;;;;6.75;3.90;;;7.90;99.90;;;;;;5026003;28;20035;-78
2022/06/23 13:51:25;;;;;;;8.65;4.85;;;7.80;99.90;;;;;;5030035;28;20042;-77
2022/06/23 13:54:00;;;;;;;6.82;4.95;;;7.70;99.90;;;;;;5029988;28;20040;-79
2022/06/23 13:56:46;;;;;;;9.18;5.18;;;7.60;99.90;;;;;;5029621;28;20030;-80
2022/06/23 13:59:25;;;;;;;10.45;6.45;;;7.60;99.90;;;;;;5028347;28;20068;-79
2022/06/23 14:02:08;;;;;;;9.95;6.70;;;7.50;99.90;;;;;;5032310;28;20120;-78
2022/06/23 14:05:00;;;;;;;10.00;6.90;;;7.50;99.90;;;;;;5030626;28;20065;-81
2022/06/23 14:07:27;;;;;;;10.80;6.85;;;7.40;99.90;;;;;;5026285;28;20045;-79
2022/06/23 14:10:05;;;;;;;13.25;6.80;;;7.40;99.90;;;;;;5030666;28;20060;-80
2022/06/23 14:12:44;;;;;;;10.73;6.40;;;7.30;99.90;;;;;;5042866;28;20094;-81
2022/06/23 14:15:32;;;;;;;10.45;6.63;;;7.30;99.90;;;;;;5032508;28;20102;-80
2022/06/23 14:18:06;;;;;;;9.40;4.47;;;7.30;99.90;;;;;;5040257;28;20025;-81
2022/06/23 14:20:51;;;;;;;9.82;5.65;;;7.40;99.90;;;;;;5047016;28;20038;-78